sensor_id;sensor_type;location;lat;lon;timestamp;P1;durP1;ratioP1;P2;durP2;ratioP2
45728;SDS011;31439;53.512;10.206;2023-04-16T00:01:40;29.23;;;19.30;;
45728;SDS011;31439;53.512;10.206;2023-04-16T00:04:06;29.50;;;18.48;;
45728;SDS011;31439;53.512;10.206;2023-04-16T00:06:32;28.60;;;19.05;;
45728;SDS011;31439;53.512;10.206;2023-04-16T00:08:58;33.85;;;19.55;;
45728;SDS011;31439;53.512;10.206;2023-04-16T00:11:24;29.52;;;19.30;;
45728;SDS011;31439;53.512;10.206;2023-04-16T00:13:50;28.98;;;18.63;;
45728;SDS011;31439;53.512;10.206;2023-04-16T00:16:16;28.23;;;18.42;;
45728;SDS011;31439;53.512;10.206;2023-04-16T00:18:42;28.63;;;19.35;;
45728;SDS011;31439;53.512;10.206;2023-04-16T00:21:08;29.20;;;18.35;;
45728;SDS011;31439;53.512;10.206;2023-04-16T00:23:35;31.70;;;18.63;;
45728;SDS011;31439;53.512;10.206;2023-04-16T00:26:01;27.52;;;17.80;;
45728;SDS011;31439;53.512;10.206;2023-04-16T00:28:28;28.92;;;18.25;;
45728;SDS011;31439;53.512;10.206;2023-04-16T00:30:54;26.38;;;17.08;;
45728;SDS011;31439;53.512;10.206;2023-04-16T00:33:20;26.80;;;17.95;;
45728;SDS011;31439;53.512;10.206;2023-04-16T00:35:46;27.73;;;18.35;;
45728;SDS011;31439;53.512;10.206;2023-04-16T00:38:13;27.55;;;17.95;;
45728;SDS011;31439;53.512;10.206;2023-04-16T00:40:39;27.40;;;17.30;;
45728;SDS011;31439;53.512;10.206;2023-04-16T00:43:05;27.77;;;17.60;;
45728;SDS011;31439;53.512;10.206;2023-04-16T00:45:31;28.88;;;18.02;;
45728;SDS011;31439;53.512;10.206;2023-04-16T00:47:58;27.02;;;17.73;;
45728;SDS011;31439;53.512;10.206;2023-04-16T00:50:24;25.20;;;17.10;;
45728;SDS011;31439;53.512;10.206;2023-04-16T00:52:50;29.95;;;17.98;;
45728;SDS011;31439;53.512;10.206;2023-04-16T00:55:16;28.75;;;17.42;;
45728;SDS011;31439;53.512;10.206;2023-04-16T00:57:43;27.55;;;16.90;;
45728;SDS011;31439;53.512;10.206;2023-04-16T01:00:10;25.83;;;16.98;;
45728;SDS011;31439;53.512;10.206;2023-04-16T01:02:36;27.80;;;17.42;;
45728;SDS011;31439;53.512;10.206;2023-04-16T01:05:02;31.00;;;16.88;;
45728;SDS011;31439;53.512;10.206;2023-04-16T01:07:29;25.52;;;16.42;;
45728;SDS011;31439;53.512;10.206;2023-04-16T01:09:55;28.17;;;16.55;;
45728;SDS011;31439;53.512;10.206;2023-04-16T01:12:21;26.75;;;16.25;;
45728;SDS011;31439;53.512;10.206;2023-04-16T01:14:47;25.42;;;16.42;;
45728;SDS011;31439;53.512;10.206;2023-04-16T01:17:13;27.75;;;16.50;;
45728;SDS011;31439;53.512;10.206;2023-04-16T01:19:39;26.70;;;16.42;;
45728;SDS011;31439;53.512;10.206;2023-04-16T01:22:05;28.45;;;16.52;;
45728;SDS011;31439;53.512;10.206;2023-04-16T01:24:32;26.17;;;16.17;;
45728;SDS011;31439;53.512;10.206;2023-04-16T01:26:58;26.42;;;15.73;;
45728;SDS011;31439;53.512;10.206;2023-04-16T01:29:25;27.23;;;15.80;;
45728;SDS011;31439;53.512;10.206;2023-04-16T01:31:51;27.23;;;16.48;;
45728;SDS011;31439;53.512;10.206;2023-04-16T01:34:18;27.65;;;16.00;;
45728;SDS011;31439;53.512;10.206;2023-04-16T01:36:44;27.40;;;15.82;;
45728;SDS011;31439;53.512;10.206;2023-04-16T01:39:10;24.15;;;15.13;;
45728;SDS011;31439;53.512;10.206;2023-04-16T01:41:39;28.98;;;15.40;;
45728;SDS011;31439;53.512;10.206;2023-04-16T01:44:06;23.48;;;15.98;;
45728;SDS011;31439;53.512;10.206;2023-04-16T01:46:32;24.60;;;15.77;;
45728;SDS011;31439;53.512;10.206;2023-04-16T01:48:58;25.45;;;15.48;;
45728;SDS011;31439;53.512;10.206;2023-04-16T01:51:24;26.05;;;15.65;;
45728;SDS011;31439;53.512;10.206;2023-04-16T01:53:52;24.02;;;15.98;;
45728;SDS011;31439;53.512;10.206;2023-04-16T01:56:18;25.63;;;14.95;;
45728;SDS011;31439;53.512;10.206;2023-04-16T01:58:44;26.75;;;15.65;;
45728;SDS011;31439;53.512;10.206;2023-04-16T02:01:11;25.05;;;14.60;;
45728;SDS011;31439;53.512;10.206;2023-04-16T02:03:38;23.42;;;15.10;;
45728;SDS011;31439;53.512;10.206;2023-04-16T02:06:04;24.88;;;15.23;;
45728;SDS011;31439;53.512;10.206;2023-04-16T02:08:30;21.17;;;15.45;;
45728;SDS011;31439;53.512;10.206;2023-04-16T02:10:57;21.23;;;14.68;;
45728;SDS011;31439;53.512;10.206;2023-04-16T02:13:23;25.83;;;14.40;;
45728;SDS011;31439;53.512;10.206;2023-04-16T02:15:50;21.27;;;14.75;;
45728;SDS011;31439;53.512;10.206;2023-04-16T02:18:16;20.80;;;13.85;;
45728;SDS011;31439;53.512;10.206;2023-04-16T02:20:43;24.65;;;14.85;;
45728;SDS011;31439;53.512;10.206;2023-04-16T02:23:09;22.58;;;15.18;;
45728;SDS011;31439;53.512;10.206;2023-04-16T02:25:39;25.17;;;15.30;;
45728;SDS011;31439;53.512;10.206;2023-04-16T02:28:08;24.45;;;14.90;;
45728;SDS011;31439;53.512;10.206;2023-04-16T02:30:35;24.50;;;14.23;;
45728;SDS011;31439;53.512;10.206;2023-04-16T02:33:04;21.95;;;14.50;;
45728;SDS011;31439;53.512;10.206;2023-04-16T02:35:31;24.08;;;14.70;;
45728;SDS011;31439;53.512;10.206;2023-04-16T02:37:58;24.90;;;14.13;;
45728;SDS011;31439;53.512;10.206;2023-04-16T02:40:24;24.20;;;14.40;;
45728;SDS011;31439;53.512;10.206;2023-04-16T02:42:51;21.42;;;14.65;;
45728;SDS011;31439;53.512;10.206;2023-04-16T02:45:17;23.67;;;14.55;;
45728;SDS011;31439;53.512;10.206;2023-04-16T02:47:43;20.10;;;13.63;;
45728;SDS011;31439;53.512;10.206;2023-04-16T02:50:09;22.13;;;14.80;;
45728;SDS011;31439;53.512;10.206;2023-04-16T02:52:36;22.13;;;14.18;;
45728;SDS011;31439;53.512;10.206;2023-04-16T02:55:02;22.08;;;14.75;;
45728;SDS011;31439;53.512;10.206;2023-04-16T02:57:28;20.40;;;14.93;;
45728;SDS011;31439;53.512;10.206;2023-04-16T02:59:54;24.15;;;14.07;;
45728;SDS011;31439;53.512;10.206;2023-04-16T03:02:20;24.17;;;14.40;;
45728;SDS011;31439;53.512;10.206;2023-04-16T03:04:46;24.40;;;14.32;;
45728;SDS011;31439;53.512;10.206;2023-04-16T03:07:12;22.25;;;14.88;;
45728;SDS011;31439;53.512;10.206;2023-04-16T03:09:38;19.52;;;14.45;;
45728;SDS011;31439;53.512;10.206;2023-04-16T03:12:04;24.10;;;15.35;;
45728;SDS011;31439;53.512;10.206;2023-04-16T03:14:30;25.52;;;16.05;;
45728;SDS011;31439;53.512;10.206;2023-04-16T03:16:56;22.67;;;14.88;;
45728;SDS011;31439;53.512;10.206;2023-04-16T03:19:23;22.80;;;14.70;;
45728;SDS011;31439;53.512;10.206;2023-04-16T03:21:49;22.02;;;14.48;;
45728;SDS011;31439;53.512;10.206;2023-04-16T03:24:15;24.05;;;15.50;;
45728;SDS011;31439;53.512;10.206;2023-04-16T03:26:41;20.20;;;14.07;;
45728;SDS011;31439;53.512;10.206;2023-04-16T03:29:07;25.42;;;15.20;;
45728;SDS011;31439;53.512;10.206;2023-04-16T03:31:33;23.80;;;14.48;;
45728;SDS011;31439;53.512;10.206;2023-04-16T03:34:00;21.75;;;14.73;;
45728;SDS011;31439;53.512;10.206;2023-04-16T03:36:26;22.08;;;14.57;;
45728;SDS011;31439;53.512;10.206;2023-04-16T03:38:52;22.48;;;14.73;;
45728;SDS011;31439;53.512;10.206;2023-04-16T03:41:18;21.85;;;14.70;;
45728;SDS011;31439;53.512;10.206;2023-04-16T03:43:44;24.15;;;15.20;;
45728;SDS011;31439;53.512;10.206;2023-04-16T03:46:10;21.70;;;14.63;;
45728;SDS011;31439;53.512;10.206;2023-04-16T03:48:36;20.67;;;14.68;;
45728;SDS011;31439;53.512;10.206;2023-04-16T03:51:02;21.33;;;14.43;;
45728;SDS011;31439;53.512;10.206;2023-04-16T03:53:28;21.98;;;14.23;;
45728;SDS011;31439;53.512;10.206;2023-04-16T03:55:54;23.70;;;14.48;;
45728;SDS011;31439;53.512;10.206;2023-04-16T03:58:20;22.25;;;14.65;;
45728;SDS011;31439;53.512;10.206;2023-04-16T04:00:47;23.48;;;14.35;;
45728;SDS011;31439;53.512;10.206;2023-04-16T04:03:13;19.08;;;13.57;;
45728;SDS011;31439;53.512;10.206;2023-04-16T04:05:41;23.30;;;14.27;;
45728;SDS011;31439;53.512;10.206;2023-04-16T04:08:07;22.42;;;14.90;;
45728;SDS011;31439;53.512;10.206;2023-04-16T04:10:34;23.52;;;14.57;;
45728;SDS011;31439;53.512;10.206;2023-04-16T04:13:04;22.25;;;14.48;;
45728;SDS011;31439;53.512;10.206;2023-04-16T04:15:30;21.58;;;14.43;;
45728;SDS011;31439;53.512;10.206;2023-04-16T04:17:56;19.80;;;14.38;;
45728;SDS011;31439;53.512;10.206;2023-04-16T04:20:23;21.25;;;13.95;;
45728;SDS011;31439;53.512;10.206;2023-04-16T04:22:49;21.80;;;14.70;;
45728;SDS011;31439;53.512;10.206;2023-04-16T04:25:16;23.73;;;14.75;;
45728;SDS011;31439;53.512;10.206;2023-04-16T04:27:42;22.27;;;14.88;;
45728;SDS011;31439;53.512;10.206;2023-04-16T04:30:08;21.90;;;14.05;;
45728;SDS011;31439;53.512;10.206;2023-04-16T04:32:34;21.45;;;13.98;;
45728;SDS011;31439;53.512;10.206;2023-04-16T04:35:01;23.58;;;13.88;;
45728;SDS011;31439;53.512;10.206;2023-04-16T04:37:27;20.20;;;14.02;;
45728;SDS011;31439;53.512;10.206;2023-04-16T04:39:53;20.30;;;13.95;;
45728;SDS011;31439;53.512;10.206;2023-04-16T04:42:20;21.52;;;14.68;;
45728;SDS011;31439;53.512;10.206;2023-04-16T04:44:46;20.35;;;14.15;;
45728;SDS011;31439;53.512;10.206;2023-04-16T04:47:13;23.20;;;14.07;;
45728;SDS011;31439;53.512;10.206;2023-04-16T04:49:39;21.35;;;14.90;;
45728;SDS011;31439;53.512;10.206;2023-04-16T04:52:05;21.95;;;14.80;;
45728;SDS011;31439;53.512;10.206;2023-04-16T04:54:31;21.73;;;15.05;;
45728;SDS011;31439;53.512;10.206;2023-04-16T04:56:57;23.02;;;14.35;;
45728;SDS011;31439;53.512;10.206;2023-04-16T04:59:24;22.08;;;14.70;;
45728;SDS011;31439;53.512;10.206;2023-04-16T05:01:50;21.45;;;15.10;;
45728;SDS011;31439;53.512;10.206;2023-04-16T05:04:16;20.85;;;15.27;;
45728;SDS011;31439;53.512;10.206;2023-04-16T05:06:42;24.13;;;15.43;;
45728;SDS011;31439;53.512;10.206;2023-04-16T05:09:11;22.40;;;15.77;;
45728;SDS011;31439;53.512;10.206;2023-04-16T05:11:38;25.75;;;15.50;;
45728;SDS011;31439;53.512;10.206;2023-04-16T05:14:04;22.92;;;16.50;;
45728;SDS011;31439;53.512;10.206;2023-04-16T05:16:30;25.58;;;16.55;;
45728;SDS011;31439;53.512;10.206;2023-04-16T05:19:03;25.27;;;16.77;;
45728;SDS011;31439;53.512;10.206;2023-04-16T05:21:30;26.98;;;16.23;;
45728;SDS011;31439;53.512;10.206;2023-04-16T05:26:57;26.65;;;16.92;;
45728;SDS011;31439;53.512;10.206;2023-04-16T05:29:24;25.95;;;16.85;;
45728;SDS011;31439;53.512;10.206;2023-04-16T05:31:50;24.10;;;15.95;;
45728;SDS011;31439;53.512;10.206;2023-04-16T05:34:16;25.02;;;16.60;;
45728;SDS011;31439;53.512;10.206;2023-04-16T05:36:42;25.77;;;17.02;;
45728;SDS011;31439;53.512;10.206;2023-04-16T05:39:08;23.73;;;16.52;;
45728;SDS011;31439;53.512;10.206;2023-04-16T05:41:55;25.80;;;17.00;;
45728;SDS011;31439;53.512;10.206;2023-04-16T05:44:21;25.45;;;17.73;;
45728;SDS011;31439;53.512;10.206;2023-04-16T05:46:47;28.40;;;17.48;;
45728;SDS011;31439;53.512;10.206;2023-04-16T05:49:13;26.23;;;17.95;;
45728;SDS011;31439;53.512;10.206;2023-04-16T05:51:39;23.50;;;17.42;;
45728;SDS011;31439;53.512;10.206;2023-04-16T05:54:05;25.25;;;17.35;;
45728;SDS011;31439;53.512;10.206;2023-04-16T05:56:31;25.55;;;17.55;;
45728;SDS011;31439;53.512;10.206;2023-04-16T05:59:03;25.10;;;17.17;;
45728;SDS011;31439;53.512;10.206;2023-04-16T06:01:35;28.92;;;17.80;;
45728;SDS011;31439;53.512;10.206;2023-04-16T06:04:04;25.13;;;17.38;;
45728;SDS011;31439;53.512;10.206;2023-04-16T06:06:30;25.55;;;18.15;;
45728;SDS011;31439;53.512;10.206;2023-04-16T06:08:56;25.40;;;18.05;;
45728;SDS011;31439;53.512;10.206;2023-04-16T06:11:28;26.15;;;17.83;;
45728;SDS011;31439;53.512;10.206;2023-04-16T06:13:54;26.40;;;17.92;;
45728;SDS011;31439;53.512;10.206;2023-04-16T06:16:21;27.33;;;17.80;;
45728;SDS011;31439;53.512;10.206;2023-04-16T06:18:47;23.92;;;17.38;;
45728;SDS011;31439;53.512;10.206;2023-04-16T06:21:15;24.73;;;17.63;;
45728;SDS011;31439;53.512;10.206;2023-04-16T06:23:44;26.30;;;17.55;;
45728;SDS011;31439;53.512;10.206;2023-04-16T06:26:23;26.58;;;17.65;;
45728;SDS011;31439;53.512;10.206;2023-04-16T06:28:49;26.35;;;17.63;;
45728;SDS011;31439;53.512;10.206;2023-04-16T06:31:15;29.02;;;18.85;;
45728;SDS011;31439;53.512;10.206;2023-04-16T06:36:16;29.95;;;18.38;;
45728;SDS011;31439;53.512;10.206;2023-04-16T06:38:45;26.85;;;18.17;;
45728;SDS011;31439;53.512;10.206;2023-04-16T06:41:12;27.42;;;18.15;;
45728;SDS011;31439;53.512;10.206;2023-04-16T06:43:39;28.58;;;18.75;;
45728;SDS011;31439;53.512;10.206;2023-04-16T06:46:05;26.10;;;18.00;;
45728;SDS011;31439;53.512;10.206;2023-04-16T06:48:31;28.00;;;17.90;;
45728;SDS011;31439;53.512;10.206;2023-04-16T06:50:57;26.85;;;17.55;;
45728;SDS011;31439;53.512;10.206;2023-04-16T06:53:23;26.75;;;18.65;;
45728;SDS011;31439;53.512;10.206;2023-04-16T06:55:52;29.33;;;18.20;;
45728;SDS011;31439;53.512;10.206;2023-04-16T06:58:18;28.75;;;18.15;;
45728;SDS011;31439;53.512;10.206;2023-04-16T07:00:46;27.20;;;18.17;;
45728;SDS011;31439;53.512;10.206;2023-04-16T07:03:12;28.55;;;18.20;;
45728;SDS011;31439;53.512;10.206;2023-04-16T07:05:38;26.90;;;18.48;;
45728;SDS011;31439;53.512;10.206;2023-04-16T07:08:04;28.88;;;18.98;;
45728;SDS011;31439;53.512;10.206;2023-04-16T07:10:30;27.70;;;18.27;;
45728;SDS011;31439;53.512;10.206;2023-04-16T07:12:56;29.27;;;18.67;;
45728;SDS011;31439;53.512;10.206;2023-04-16T07:15:25;30.42;;;19.15;;
45728;SDS011;31439;53.512;10.206;2023-04-16T07:17:51;27.95;;;18.23;;
45728;SDS011;31439;53.512;10.206;2023-04-16T07:20:17;28.52;;;18.20;;
45728;SDS011;31439;53.512;10.206;2023-04-16T07:22:43;27.77;;;17.15;;
45728;SDS011;31439;53.512;10.206;2023-04-16T07:25:09;26.42;;;17.30;;
45728;SDS011;31439;53.512;10.206;2023-04-16T07:27:35;28.17;;;18.35;;
45728;SDS011;31439;53.512;10.206;2023-04-16T07:30:05;26.95;;;19.23;;
45728;SDS011;31439;53.512;10.206;2023-04-16T07:32:31;26.98;;;17.52;;
45728;SDS011;31439;53.512;10.206;2023-04-16T07:34:58;26.35;;;18.10;;
45728;SDS011;31439;53.512;10.206;2023-04-16T07:37:24;27.90;;;18.08;;
45728;SDS011;31439;53.512;10.206;2023-04-16T07:39:50;29.75;;;17.95;;
45728;SDS011;31439;53.512;10.206;2023-04-16T07:42:16;27.60;;;17.52;;
45728;SDS011;31439;53.512;10.206;2023-04-16T07:44:42;25.00;;;17.45;;
45728;SDS011;31439;53.512;10.206;2023-04-16T07:47:08;25.90;;;17.73;;
45728;SDS011;31439;53.512;10.206;2023-04-16T07:49:34;25.25;;;17.13;;
45728;SDS011;31439;53.512;10.206;2023-04-16T07:52:00;24.33;;;16.77;;
45728;SDS011;31439;53.512;10.206;2023-04-16T07:54:27;26.15;;;18.00;;
45728;SDS011;31439;53.512;10.206;2023-04-16T07:56:53;25.75;;;18.27;;
45728;SDS011;31439;53.512;10.206;2023-04-16T07:59:19;26.38;;;16.98;;
45728;SDS011;31439;53.512;10.206;2023-04-16T08:01:45;26.52;;;17.10;;
45728;SDS011;31439;53.512;10.206;2023-04-16T08:04:11;24.67;;;17.08;;
45728;SDS011;31439;53.512;10.206;2023-04-16T08:06:38;22.92;;;16.35;;
45728;SDS011;31439;53.512;10.206;2023-04-16T08:09:04;22.05;;;16.02;;
45728;SDS011;31439;53.512;10.206;2023-04-16T08:11:30;22.08;;;15.77;;
45728;SDS011;31439;53.512;10.206;2023-04-16T08:13:56;22.48;;;15.75;;
45728;SDS011;31439;53.512;10.206;2023-04-16T08:16:22;26.80;;;16.50;;
45728;SDS011;31439;53.512;10.206;2023-04-16T08:18:48;24.52;;;15.35;;
45728;SDS011;31439;53.512;10.206;2023-04-16T08:21:14;23.50;;;16.00;;
45728;SDS011;31439;53.512;10.206;2023-04-16T08:23:40;24.30;;;15.38;;
45728;SDS011;31439;53.512;10.206;2023-04-16T08:26:07;25.48;;;16.05;;
45728;SDS011;31439;53.512;10.206;2023-04-16T08:28:35;24.58;;;16.15;;
45728;SDS011;31439;53.512;10.206;2023-04-16T08:31:01;27.17;;;16.55;;
45728;SDS011;31439;53.512;10.206;2023-04-16T08:33:30;29.35;;;17.40;;
45728;SDS011;31439;53.512;10.206;2023-04-16T08:35:56;23.92;;;16.63;;
45728;SDS011;31439;53.512;10.206;2023-04-16T08:38:22;23.20;;;15.45;;
45728;SDS011;31439;53.512;10.206;2023-04-16T08:40:48;24.50;;;15.32;;
45728;SDS011;31439;53.512;10.206;2023-04-16T08:43:15;22.83;;;15.52;;
45728;SDS011;31439;53.512;10.206;2023-04-16T08:45:42;25.88;;;16.27;;
45728;SDS011;31439;53.512;10.206;2023-04-16T08:48:10;26.65;;;16.65;;
45728;SDS011;31439;53.512;10.206;2023-04-16T08:50:36;27.08;;;16.13;;
45728;SDS011;31439;53.512;10.206;2023-04-16T08:53:03;23.73;;;16.30;;
45728;SDS011;31439;53.512;10.206;2023-04-16T08:58:03;22.88;;;16.13;;
45728;SDS011;31439;53.512;10.206;2023-04-16T09:00:33;23.00;;;15.85;;
45728;SDS011;31439;53.512;10.206;2023-04-16T09:03:00;20.55;;;15.10;;
45728;SDS011;31439;53.512;10.206;2023-04-16T09:05:27;20.60;;;14.68;;
45728;SDS011;31439;53.512;10.206;2023-04-16T09:07:54;22.33;;;14.75;;
45728;SDS011;31439;53.512;10.206;2023-04-16T09:10:20;20.88;;;15.63;;
45728;SDS011;31439;53.512;10.206;2023-04-16T09:12:46;22.45;;;15.77;;
45728;SDS011;31439;53.512;10.206;2023-04-16T09:15:12;22.67;;;15.15;;
45728;SDS011;31439;53.512;10.206;2023-04-16T09:17:38;22.45;;;16.10;;
45728;SDS011;31439;53.512;10.206;2023-04-16T09:20:05;22.13;;;15.38;;
45728;SDS011;31439;53.512;10.206;2023-04-16T09:22:38;21.23;;;15.23;;
45728;SDS011;31439;53.512;10.206;2023-04-16T09:25:07;23.35;;;16.67;;
45728;SDS011;31439;53.512;10.206;2023-04-16T09:27:33;20.73;;;15.32;;
45728;SDS011;31439;53.512;10.206;2023-04-16T09:29:59;24.13;;;15.90;;
45728;SDS011;31439;53.512;10.206;2023-04-16T09:32:26;21.90;;;15.63;;
45728;SDS011;31439;53.512;10.206;2023-04-16T09:34:53;22.50;;;15.65;;
45728;SDS011;31439;53.512;10.206;2023-04-16T09:37:19;20.20;;;14.75;;
45728;SDS011;31439;53.512;10.206;2023-04-16T09:39:52;20.27;;;15.20;;
45728;SDS011;31439;53.512;10.206;2023-04-16T09:42:26;24.50;;;15.10;;
45728;SDS011;31439;53.512;10.206;2023-04-16T09:44:52;22.20;;;15.30;;
45728;SDS011;31439;53.512;10.206;2023-04-16T09:47:19;21.55;;;15.30;;
45728;SDS011;31439;53.512;10.206;2023-04-16T09:49:45;21.95;;;15.82;;
45728;SDS011;31439;53.512;10.206;2023-04-16T09:52:15;23.13;;;16.20;;
45728;SDS011;31439;53.512;10.206;2023-04-16T09:54:48;23.83;;;14.80;;
45728;SDS011;31439;53.512;10.206;2023-04-16T09:57:21;22.50;;;14.55;;
45728;SDS011;31439;53.512;10.206;2023-04-16T09:59:51;20.90;;;14.63;;
45728;SDS011;31439;53.512;10.206;2023-04-16T10:02:17;20.98;;;14.32;;
45728;SDS011;31439;53.512;10.206;2023-04-16T10:04:48;20.08;;;14.40;;
45728;SDS011;31439;53.512;10.206;2023-04-16T10:07:17;21.27;;;14.85;;
45728;SDS011;31439;53.512;10.206;2023-04-16T10:09:44;19.75;;;13.88;;
45728;SDS011;31439;53.512;10.206;2023-04-16T10:12:15;19.83;;;13.50;;
45728;SDS011;31439;53.512;10.206;2023-04-16T10:14:41;20.10;;;13.63;;
45728;SDS011;31439;53.512;10.206;2023-04-16T10:17:07;18.60;;;13.73;;
45728;SDS011;31439;53.512;10.206;2023-04-16T10:19:37;18.35;;;13.43;;
45728;SDS011;31439;53.512;10.206;2023-04-16T10:22:04;17.90;;;11.85;;
45728;SDS011;31439;53.512;10.206;2023-04-16T10:24:31;18.40;;;13.50;;
45728;SDS011;31439;53.512;10.206;2023-04-16T10:26:57;19.52;;;12.90;;
45728;SDS011;31439;53.512;10.206;2023-04-16T10:29:24;17.33;;;12.35;;
45728;SDS011;31439;53.512;10.206;2023-04-16T10:31:54;19.08;;;12.43;;
45728;SDS011;31439;53.512;10.206;2023-04-16T10:34:21;16.38;;;12.00;;
45728;SDS011;31439;53.512;10.206;2023-04-16T10:36:49;16.90;;;12.13;;
45728;SDS011;31439;53.512;10.206;2023-04-16T10:39:20;19.92;;;12.63;;
45728;SDS011;31439;53.512;10.206;2023-04-16T10:41:46;18.27;;;12.82;;
45728;SDS011;31439;53.512;10.206;2023-04-16T10:44:12;16.30;;;11.98;;
45728;SDS011;31439;53.512;10.206;2023-04-16T10:46:42;19.63;;;13.05;;
45728;SDS011;31439;53.512;10.206;2023-04-16T10:49:17;20.23;;;12.90;;
45728;SDS011;31439;53.512;10.206;2023-04-16T10:51:53;17.13;;;11.68;;
45728;SDS011;31439;53.512;10.206;2023-04-16T10:54:20;17.92;;;12.30;;
45728;SDS011;31439;53.512;10.206;2023-04-16T10:56:48;17.20;;;11.93;;
45728;SDS011;31439;53.512;10.206;2023-04-16T10:59:18;17.92;;;11.88;;
45728;SDS011;31439;53.512;10.206;2023-04-16T11:01:45;15.50;;;11.80;;
45728;SDS011;31439;53.512;10.206;2023-04-16T11:09:51;16.60;;;11.95;;
45728;SDS011;31439;53.512;10.206;2023-04-16T11:12:39;16.95;;;12.07;;
45728;SDS011;31439;53.512;10.206;2023-04-16T11:15:13;17.42;;;11.82;;
45728;SDS011;31439;53.512;10.206;2023-04-16T11:20:15;17.05;;;11.75;;
45728;SDS011;31439;53.512;10.206;2023-04-16T11:22:41;19.92;;;11.88;;
45728;SDS011;31439;53.512;10.206;2023-04-16T11:25:28;17.25;;;12.20;;
45728;SDS011;31439;53.512;10.206;2023-04-16T11:27:55;17.52;;;12.00;;
45728;SDS011;31439;53.512;10.206;2023-04-16T11:30:38;16.10;;;11.57;;
45728;SDS011;31439;53.512;10.206;2023-04-16T11:33:09;18.73;;;12.30;;
45728;SDS011;31439;53.512;10.206;2023-04-16T11:35:36;17.38;;;12.10;;
45728;SDS011;31439;53.512;10.206;2023-04-16T11:38:06;19.02;;;12.40;;
45728;SDS011;31439;53.512;10.206;2023-04-16T11:40:33;16.92;;;11.55;;
45728;SDS011;31439;53.512;10.206;2023-04-16T11:43:05;17.67;;;12.30;;
45728;SDS011;31439;53.512;10.206;2023-04-16T11:45:54;17.25;;;11.75;;
45728;SDS011;31439;53.512;10.206;2023-04-16T11:48:21;18.77;;;12.27;;
45728;SDS011;31439;53.512;10.206;2023-04-16T11:50:54;17.35;;;11.50;;
45728;SDS011;31439;53.512;10.206;2023-04-16T11:53:20;15.63;;;11.15;;
45728;SDS011;31439;53.512;10.206;2023-04-16T11:55:46;21.90;;;11.73;;
45728;SDS011;31439;53.512;10.206;2023-04-16T11:58:12;16.77;;;11.15;;
45728;SDS011;31439;53.512;10.206;2023-04-16T12:00:43;15.75;;;11.50;;
45728;SDS011;31439;53.512;10.206;2023-04-16T12:03:09;20.35;;;12.18;;
45728;SDS011;31439;53.512;10.206;2023-04-16T12:05:36;18.05;;;11.73;;
45728;SDS011;31439;53.512;10.206;2023-04-16T12:08:11;16.13;;;11.52;;
45728;SDS011;31439;53.512;10.206;2023-04-16T12:10:58;15.07;;;11.32;;
45728;SDS011;31439;53.512;10.206;2023-04-16T12:13:23;17.65;;;12.05;;
45728;SDS011;31439;53.512;10.206;2023-04-16T12:15:53;18.27;;;11.68;;
45728;SDS011;31439;53.512;10.206;2023-04-16T12:18:21;15.85;;;11.55;;
45728;SDS011;31439;53.512;10.206;2023-04-16T12:20:47;15.57;;;11.40;;
45728;SDS011;31439;53.512;10.206;2023-04-16T12:23:21;15.88;;;11.32;;
45728;SDS011;31439;53.512;10.206;2023-04-16T12:25:47;15.20;;;10.85;;
45728;SDS011;31439;53.512;10.206;2023-04-16T12:28:34;14.38;;;10.57;;
45728;SDS011;31439;53.512;10.206;2023-04-16T12:31:02;15.98;;;10.75;;
45728;SDS011;31439;53.512;10.206;2023-04-16T12:33:32;15.95;;;10.82;;
45728;SDS011;31439;53.512;10.206;2023-04-16T12:35:58;19.23;;;11.88;;
45728;SDS011;31439;53.512;10.206;2023-04-16T12:38:25;16.60;;;10.95;;
45728;SDS011;31439;53.512;10.206;2023-04-16T12:40:51;17.52;;;11.32;;
45728;SDS011;31439;53.512;10.206;2023-04-16T12:43:20;15.35;;;11.50;;
45728;SDS011;31439;53.512;10.206;2023-04-16T12:45:47;14.25;;;10.52;;
45728;SDS011;31439;53.512;10.206;2023-04-16T12:48:16;15.52;;;11.35;;
45728;SDS011;31439;53.512;10.206;2023-04-16T12:50:42;19.77;;;11.50;;
45728;SDS011;31439;53.512;10.206;2023-04-16T12:53:08;18.45;;;12.68;;
45728;SDS011;31439;53.512;10.206;2023-04-16T12:55:34;18.98;;;12.15;;
45728;SDS011;31439;53.512;10.206;2023-04-16T12:58:00;17.63;;;11.73;;
45728;SDS011;31439;53.512;10.206;2023-04-16T13:00:27;16.02;;;11.07;;
45728;SDS011;31439;53.512;10.206;2023-04-16T13:02:53;16.85;;;11.98;;
45728;SDS011;31439;53.512;10.206;2023-04-16T13:05:19;17.60;;;12.55;;
45728;SDS011;31439;53.512;10.206;2023-04-16T13:07:45;16.17;;;12.07;;
45728;SDS011;31439;53.512;10.206;2023-04-16T13:10:11;17.25;;;12.10;;
45728;SDS011;31439;53.512;10.206;2023-04-16T13:12:37;16.48;;;11.68;;
45728;SDS011;31439;53.512;10.206;2023-04-16T13:15:03;17.15;;;11.73;;
45728;SDS011;31439;53.512;10.206;2023-04-16T13:17:30;15.80;;;11.80;;
45728;SDS011;31439;53.512;10.206;2023-04-16T13:19:56;15.93;;;12.02;;
45728;SDS011;31439;53.512;10.206;2023-04-16T13:22:22;18.02;;;11.55;;
45728;SDS011;31439;53.512;10.206;2023-04-16T13:24:48;16.30;;;11.48;;
45728;SDS011;31439;53.512;10.206;2023-04-16T13:27:17;17.30;;;12.30;;
45728;SDS011;31439;53.512;10.206;2023-04-16T13:29:44;15.75;;;10.50;;
45728;SDS011;31439;53.512;10.206;2023-04-16T13:32:11;18.35;;;11.27;;
45728;SDS011;31439;53.512;10.206;2023-04-16T13:34:38;19.00;;;11.60;;
45728;SDS011;31439;53.512;10.206;2023-04-16T13:37:04;20.92;;;12.25;;
45728;SDS011;31439;53.512;10.206;2023-04-16T13:39:30;18.80;;;12.13;;
45728;SDS011;31439;53.512;10.206;2023-04-16T13:41:56;16.17;;;11.55;;
45728;SDS011;31439;53.512;10.206;2023-04-16T13:44:22;17.70;;;11.93;;
45728;SDS011;31439;53.512;10.206;2023-04-16T13:46:49;15.77;;;10.75;;
45728;SDS011;31439;53.512;10.206;2023-04-16T13:49:15;20.75;;;12.90;;
45728;SDS011;31439;53.512;10.206;2023-04-16T13:51:41;18.95;;;11.48;;
45728;SDS011;31439;53.512;10.206;2023-04-16T13:54:11;19.08;;;11.13;;
45728;SDS011;31439;53.512;10.206;2023-04-16T13:56:37;20.88;;;11.68;;
45728;SDS011;31439;53.512;10.206;2023-04-16T13:59:03;17.95;;;11.80;;
45728;SDS011;31439;53.512;10.206;2023-04-16T14:01:29;14.60;;;11.05;;
45728;SDS011;31439;53.512;10.206;2023-04-16T14:03:55;17.73;;;11.90;;
45728;SDS011;31439;53.512;10.206;2023-04-16T14:06:21;19.27;;;11.88;;
45728;SDS011;31439;53.512;10.206;2023-04-16T14:08:47;14.50;;;11.10;;
45728;SDS011;31439;53.512;10.206;2023-04-16T14:11:13;18.50;;;11.20;;
45728;SDS011;31439;53.512;10.206;2023-04-16T14:13:40;17.10;;;12.10;;
45728;SDS011;31439;53.512;10.206;2023-04-16T14:16:06;18.13;;;11.70;;
45728;SDS011;31439;53.512;10.206;2023-04-16T14:18:32;24.85;;;11.80;;
45728;SDS011;31439;53.512;10.206;2023-04-16T14:20:59;15.35;;;11.40;;
45728;SDS011;31439;53.512;10.206;2023-04-16T14:23:26;17.95;;;12.30;;
45728;SDS011;31439;53.512;10.206;2023-04-16T14:25:52;15.82;;;11.40;;